createdAt,value
2018-06-04T00:00:02.755Z,16.50
2018-06-04T00:01:02.853Z,16.30
2018-06-04T00:02:02.952Z,16.20
2018-06-04T00:03:03.057Z,17.10
2018-06-04T00:04:03.157Z,16.80
2018-06-04T00:05:03.254Z,16.50
2018-06-04T00:06:03.356Z,15.90
2018-06-04T00:07:03.453Z,15.90
2018-06-04T00:08:03.563Z,17.70
2018-06-04T00:09:03.661Z,16.20
2018-06-04T00:10:03.759Z,16.60
2018-06-04T00:11:03.860Z,15.60
2018-06-04T00:12:03.958Z,16.20
2018-06-04T00:13:04.058Z,16.80
2018-06-04T00:14:04.159Z,17.10
2018-06-04T00:15:04.277Z,17.00
2018-06-04T00:16:04.378Z,17.20
2018-06-04T00:17:04.471Z,16.40
2018-06-04T00:18:04.567Z,16.60
2018-06-04T00:19:04.668Z,19.70
2018-06-04T00:20:04.766Z,16.30
2018-06-04T00:21:04.867Z,16.60
2018-06-04T00:22:04.988Z,16.30
2018-06-04T00:23:05.088Z,16.60
2018-06-04T00:24:05.186Z,18.00
2018-06-04T00:25:05.285Z,16.40
2018-06-04T00:26:05.387Z,17.10
2018-06-04T00:27:05.515Z,16.30
2018-06-04T00:28:05.592Z,16.70
2018-06-04T00:29:05.704Z,16.90
2018-06-04T00:30:05.801Z,17.10
2018-06-04T00:31:05.900Z,16.30
2018-06-04T00:32:06.000Z,16.70
2018-06-04T00:33:06.100Z,16.60
2018-06-04T00:34:06.198Z,16.90
2018-06-04T00:35:06.300Z,17.20
2018-06-04T00:36:06.414Z,15.50
2018-06-04T00:37:06.516Z,16.80
2018-06-04T00:38:06.616Z,17.00
2018-06-04T00:39:06.717Z,16.50
2018-06-04T00:40:06.814Z,17.40
2018-06-04T00:41:06.911Z,16.30
2018-06-04T00:42:07.011Z,15.70
2018-06-04T00:43:07.131Z,16.60
2018-06-04T00:44:07.231Z,17.10
2018-06-04T00:45:07.330Z,16.90
2018-06-04T00:46:07.429Z,16.20
2018-06-04T00:47:07.529Z,16.50
2018-06-04T00:48:07.627Z,16.70
2018-06-04T00:49:07.729Z,17.50
2018-06-04T00:50:07.847Z,15.70
2018-06-04T00:51:07.945Z,16.90
2018-06-04T00:52:08.042Z,17.00
2018-06-04T00:53:08.142Z,16.40
2018-06-04T00:54:08.241Z,16.80
2018-06-04T00:55:08.340Z,16.30
2018-06-04T00:56:08.439Z,17.10
2018-06-04T00:57:08.558Z,16.60
2018-06-04T00:58:08.659Z,17.60
2018-06-04T00:59:08.760Z,16.60
2018-06-04T01:00:08.857Z,16.70
2018-06-04T01:01:08.951Z,19.70
2018-06-04T01:02:09.052Z,16.60
2018-06-04T01:03:09.152Z,17.00
2018-06-04T01:04:09.271Z,16.80
2018-06-04T01:05:09.379Z,17.30
2018-06-04T01:06:09.471Z,16.90
2018-06-04T01:07:09.569Z,16.70
2018-06-04T01:08:09.671Z,16.30
2018-06-04T01:09:09.769Z,17.00
2018-06-04T01:10:09.867Z,16.80
2018-06-04T01:11:10.023Z,17.60
2018-06-04T01:12:10.025Z,17.60
2018-06-04T01:13:10.148Z,17.70
2018-06-04T01:14:10.286Z,17.30
2018-06-04T01:15:10.392Z,17.90
2018-06-04T01:16:10.479Z,16.40
2018-06-04T01:17:10.570Z,16.90
2018-06-04T01:18:10.659Z,17.70
2018-06-04T01:19:10.794Z,16.20
2018-06-04T01:20:10.853Z,17.80
2018-06-04T01:21:10.960Z,18.10
2018-06-04T01:22:11.070Z,17.10
2018-06-04T01:23:11.255Z,16.80
2018-06-04T01:24:11.231Z,18.40
2018-06-04T01:25:11.327Z,16.70
2018-06-04T01:26:11.491Z,17.90
2018-06-04T01:27:11.649Z,17.20
2018-06-04T01:28:11.667Z,17.60
2018-06-04T01:29:11.851Z,18.10
2018-06-04T01:30:11.884Z,17.60
2018-06-04T01:31:11.975Z,18.10
2018-06-04T01:32:12.100Z,16.50
2018-06-04T01:33:12.161Z,17.60
2018-06-04T01:34:12.250Z,17.60
2018-06-04T01:35:12.510Z,17.00
2018-06-04T01:36:12.632Z,18.10
2018-06-04T01:37:12.652Z,17.00
2018-06-04T01:38:12.772Z,17.10
2018-06-04T01:39:12.861Z,17.90
2018-06-04T01:40:13.001Z,17.40
2018-06-04T01:41:13.085Z,17.90
2018-06-04T01:42:13.088Z,19.30
2018-06-04T01:43:13.333Z,16.30
2018-06-04T01:44:13.416Z,17.40
2018-06-04T01:45:13.411Z,17.70
2018-06-04T01:46:13.633Z,17.30
2018-06-04T01:47:13.625Z,16.90
2018-06-04T01:48:13.683Z,17.40
2018-06-04T01:49:13.830Z,17.80
2018-06-04T01:50:14.091Z,16.90
2018-06-04T01:51:14.100Z,17.40
2018-06-04T01:52:14.136Z,17.90
2018-06-04T01:53:14.313Z,18.10
2018-06-04T01:54:14.289Z,18.00
2018-06-04T01:55:14.442Z,18.30
2018-06-04T01:56:14.476Z,16.90
2018-06-04T01:57:14.576Z,16.60
2018-06-04T01:58:14.627Z,16.80
2018-06-04T01:59:14.832Z,17.50
2018-06-04T02:00:14.875Z,17.70
2018-06-04T02:01:14.997Z,16.40
2018-06-04T02:02:15.090Z,17.30
2018-06-04T02:03:15.145Z,16.70
2018-06-04T02:04:15.198Z,17.30
2018-06-04T02:05:15.342Z,16.60
2018-06-04T02:06:15.434Z,18.70
2018-06-04T02:07:15.572Z,17.00
2018-06-04T02:08:15.613Z,18.80
2018-06-04T02:09:15.761Z,16.60
2018-06-04T02:10:15.873Z,17.20
2018-06-04T02:11:16.014Z,18.40
2018-06-04T02:12:16.133Z,17.80
2018-06-04T02:13:16.254Z,17.50
2018-06-04T02:14:16.368Z,16.60
2018-06-04T02:15:16.476Z,18.40
2018-06-04T02:16:16.564Z,19.00
2018-06-04T02:17:16.670Z,17.60
2018-06-04T02:18:16.802Z,17.20
2018-06-04T02:19:16.896Z,18.20
2018-06-04T02:20:17.030Z,20.40
2018-06-04T02:21:17.128Z,17.50
2018-06-04T02:22:17.240Z,17.20
2018-06-04T02:23:17.419Z,18.80
2018-06-04T02:24:17.381Z,16.80
2018-06-04T02:25:17.476Z,17.80
2018-06-04T02:26:17.592Z,17.10
2018-06-04T02:27:17.687Z,17.20
2018-06-04T02:28:17.827Z,17.10
2018-06-04T02:29:17.923Z,17.10
2018-06-04T02:30:18.026Z,17.10
2018-06-04T02:31:18.118Z,17.50
2018-06-04T02:32:18.290Z,16.40
2018-06-04T02:33:18.393Z,17.60
2018-06-04T02:34:18.488Z,16.70
2018-06-04T02:35:18.648Z,16.80
2018-06-04T02:36:18.747Z,17.30
2018-06-04T02:37:18.776Z,17.30
2018-06-04T02:38:18.862Z,16.70
2018-06-04T02:39:18.969Z,17.50
2018-06-04T02:40:19.097Z,18.10
2018-06-04T02:41:19.144Z,18.30
2018-06-04T02:42:19.261Z,17.40
2018-06-04T02:43:19.361Z,16.40
2018-06-04T02:44:19.467Z,17.20
2018-06-04T02:45:19.606Z,17.80
2018-06-04T02:46:19.753Z,17.70
2018-06-04T02:47:19.854Z,17.40
2018-06-04T02:48:19.942Z,18.00
2018-06-04T02:49:20.080Z,18.80
2018-06-04T02:50:20.221Z,17.50
2018-06-04T02:51:20.305Z,16.70
2018-06-04T02:52:20.399Z,17.10
2018-06-04T02:53:20.502Z,16.00
2018-06-04T02:54:20.603Z,16.10
2018-06-04T02:55:20.729Z,16.30
2018-06-04T02:56:20.843Z,16.40
2018-06-04T02:57:21.016Z,17.20
2018-06-04T02:58:20.991Z,17.90
2018-06-04T02:59:21.034Z,17.60
2018-06-04T03:00:21.131Z,16.90
2018-06-04T03:01:21.213Z,16.70
2018-06-04T03:02:21.363Z,18.10
2018-06-04T03:03:21.464Z,16.80
2018-06-04T03:04:21.570Z,17.50
2018-06-04T03:05:21.797Z,17.30
2018-06-04T03:06:21.769Z,16.90
2018-06-04T03:07:21.864Z,16.80
2018-06-04T03:08:22.031Z,17.20
2018-06-04T03:09:22.170Z,17.00
2018-06-04T03:10:22.338Z,17.30
2018-06-04T03:11:22.408Z,17.00
2018-06-04T03:12:22.529Z,17.10
2018-06-04T03:13:22.639Z,17.40
2018-06-04T03:14:22.741Z,16.90
2018-06-04T03:15:22.834Z,16.50
2018-06-04T03:16:22.934Z,17.00
2018-06-04T03:17:23.049Z,17.10
2018-06-04T03:18:23.163Z,18.30
2018-06-04T03:19:23.233Z,17.80
2018-06-04T03:20:23.326Z,18.80
2018-06-04T03:21:23.426Z,18.00
2018-06-04T03:22:23.546Z,16.80
2018-06-04T03:23:23.652Z,17.50
2018-06-04T03:24:23.757Z,16.40
2018-06-04T03:25:23.870Z,16.40
2018-06-04T03:26:23.964Z,17.90
2018-06-04T03:27:24.066Z,17.50
2018-06-04T03:28:24.164Z,18.40
2018-06-04T03:29:24.265Z,16.40
2018-06-04T03:30:24.364Z,16.50
2018-06-04T03:31:24.463Z,16.80
2018-06-04T03:32:24.568Z,17.60
2018-06-04T03:33:24.663Z,16.90
2018-06-04T03:34:24.760Z,17.80
2018-06-04T03:35:24.893Z,17.50
2018-06-04T03:36:24.988Z,16.80
2018-06-04T03:37:25.083Z,16.30
2018-06-04T03:38:25.172Z,17.00
2018-06-04T03:39:25.269Z,17.80
2018-06-04T03:40:25.379Z,17.30
2018-06-04T03:41:25.477Z,16.80
2018-06-04T03:42:25.579Z,16.40
2018-06-04T03:43:25.676Z,16.10
2018-06-04T03:44:25.774Z,16.20
2018-06-04T03:45:25.876Z,16.80
2018-06-04T03:46:25.975Z,15.90
2018-06-04T03:47:26.092Z,17.00
2018-06-04T03:48:26.189Z,17.40
2018-06-04T03:49:26.287Z,19.00
2018-06-04T03:50:26.389Z,16.70
2018-06-04T03:51:26.486Z,16.10
2018-06-04T03:52:26.593Z,19.20
2018-06-04T03:53:26.683Z,16.20
2018-06-04T03:54:26.802Z,16.50
2018-06-04T03:55:26.905Z,16.40
2018-06-04T03:56:27.001Z,16.60
2018-06-04T03:57:27.101Z,17.00
2018-06-04T03:58:27.190Z,18.00
2018-06-04T03:59:27.289Z,16.90
2018-06-04T04:00:27.387Z,19.50
2018-06-04T04:01:27.487Z,16.20
2018-06-04T04:02:27.585Z,17.20
2018-06-04T04:03:27.683Z,16.80
2018-06-04T04:04:27.786Z,16.50
2018-06-04T04:05:27.886Z,17.10
2018-06-04T04:06:27.989Z,20.00
2018-06-04T04:07:28.090Z,17.00
2018-06-04T04:08:28.188Z,16.10
2018-06-04T04:09:28.288Z,16.90
2018-06-04T04:10:28.387Z,18.20
2018-06-04T04:11:28.485Z,16.70
2018-06-04T04:12:28.584Z,15.50
2018-06-04T04:13:28.685Z,16.40
2018-06-04T04:14:28.787Z,17.00
2018-06-04T04:15:28.887Z,16.00
2018-06-04T04:16:28.985Z,16.90
2018-06-04T04:17:29.084Z,16.60
2018-06-04T04:18:29.182Z,17.10
2018-06-04T04:19:29.284Z,17.80
2018-06-04T04:20:29.385Z,16.10
2018-06-04T04:21:29.489Z,16.40
2018-06-04T04:22:29.579Z,16.80
2018-06-04T04:23:29.686Z,16.00
2018-06-04T04:24:29.776Z,16.90
2018-06-04T04:25:29.875Z,17.20
2018-06-04T04:26:29.976Z,17.40
2018-06-04T04:27:30.076Z,18.10
2018-06-04T04:28:30.177Z,16.50
2018-06-04T04:29:30.277Z,18.30
2018-06-04T04:30:30.383Z,15.80
2018-06-04T04:31:30.479Z,19.10
2018-06-04T04:32:30.581Z,17.20
2018-06-04T04:33:30.679Z,16.70
2018-06-04T04:34:30.772Z,18.70
2018-06-04T04:35:30.885Z,17.60
2018-06-04T04:36:30.991Z,18.60
2018-06-04T04:37:31.087Z,18.60
2018-06-04T04:38:31.187Z,18.20
2018-06-04T04:39:31.286Z,18.10
2018-06-04T04:40:31.386Z,18.40
2018-06-04T04:41:31.488Z,18.30
2018-06-04T04:42:31.596Z,17.90
2018-06-04T04:43:31.697Z,18.00
2018-06-04T04:44:31.797Z,18.80
2018-06-04T04:45:31.898Z,17.30
2018-06-04T04:46:31.998Z,18.60
2018-06-04T04:47:32.100Z,19.80
2018-06-04T04:48:32.200Z,18.70
2018-06-04T04:49:32.308Z,18.30
2018-06-04T04:50:32.417Z,18.10
2018-06-04T04:51:32.515Z,17.70
2018-06-04T04:52:32.623Z,19.40
2018-06-04T04:53:32.714Z,18.60
2018-06-04T04:54:32.817Z,18.20
2018-06-04T04:55:32.917Z,17.80
2018-06-04T04:56:33.020Z,18.70
2018-06-04T04:57:33.119Z,19.00
2018-06-04T04:58:33.220Z,17.30
2018-06-04T04:59:33.374Z,18.60
2018-06-04T05:00:33.422Z,19.80
2018-06-04T05:01:33.523Z,21.80
2018-06-04T05:02:33.626Z,21.20
2018-06-04T05:03:33.740Z,20.20
2018-06-04T05:04:33.840Z,22.70
2018-06-04T05:05:33.941Z,20.20
2018-06-04T05:06:34.042Z,19.60
2018-06-04T05:07:34.144Z,18.50
2018-06-04T05:08:34.277Z,19.90
2018-06-04T05:09:34.343Z,21.90
2018-06-04T05:10:34.450Z,19.70
2018-06-04T05:11:34.549Z,43.20
2018-06-04T05:12:34.652Z,33.80
2018-06-04T05:13:34.752Z,40.50
2018-06-04T05:14:34.857Z,30.40
2018-06-04T05:15:34.961Z,24.90
2018-06-04T05:16:35.052Z,25.20
2018-06-04T05:17:35.163Z,21.90
2018-06-04T05:18:35.266Z,20.80
2018-06-04T05:19:35.365Z,21.50
2018-06-04T05:20:35.465Z,20.70
2018-06-04T05:21:35.566Z,21.90
2018-06-04T05:22:35.667Z,22.30
2018-06-04T05:23:35.770Z,18.20
2018-06-04T05:24:35.880Z,18.40
2018-06-04T05:25:35.983Z,17.20
2018-06-04T05:26:36.138Z,16.80
2018-06-04T05:27:36.183Z,16.10
2018-06-04T05:28:36.284Z,16.20
2018-06-04T05:29:36.387Z,16.90
2018-06-04T05:30:36.492Z,17.40
2018-06-04T05:31:36.652Z,15.70
2018-06-04T05:32:36.735Z,15.20
2018-06-04T05:33:36.839Z,14.30
2018-06-04T05:34:36.943Z,14.20
2018-06-04T05:35:37.050Z,13.00
2018-06-04T05:36:37.154Z,14.70
2018-06-04T05:37:37.259Z,14.60
2018-06-04T05:38:37.363Z,13.90
2018-06-04T05:39:37.470Z,15.20
2018-06-04T05:40:37.574Z,14.40
2018-06-04T05:41:37.677Z,12.90
2018-06-04T05:42:37.787Z,13.50
2018-06-04T05:43:37.893Z,13.30
2018-06-04T05:44:38.002Z,13.70
2018-06-04T05:45:38.104Z,13.40
2018-06-04T05:46:38.209Z,12.50
2018-06-04T05:47:38.320Z,12.90
2018-06-04T05:48:38.426Z,13.50
2018-06-04T05:49:38.537Z,13.40
2018-06-04T05:50:38.649Z,14.50
2018-06-04T05:51:38.740Z,13.50
2018-06-04T05:52:38.856Z,13.40
2018-06-04T05:53:38.959Z,14.50
2018-06-04T05:54:39.066Z,13.60
2018-06-04T05:55:39.176Z,14.40
2018-06-04T05:56:39.289Z,13.80
2018-06-04T05:57:39.437Z,13.40
2018-06-04T05:58:39.509Z,12.70
2018-06-04T05:59:39.619Z,13.90
2018-06-04T06:00:39.731Z,13.90
2018-06-04T06:01:39.855Z,13.60
2018-06-04T06:02:39.999Z,14.00
2018-06-04T06:03:40.970Z,13.90
2018-06-04T06:04:40.521Z,13.50
2018-06-04T06:05:40.573Z,13.80
2018-06-04T06:06:40.585Z,13.90
2018-06-04T06:07:40.795Z,13.30
2018-06-04T06:08:40.683Z,13.60
2018-06-04T06:09:41.041Z,13.60
2018-06-04T06:10:40.976Z,13.90
2018-06-04T06:11:41.163Z,13.90
2018-06-04T06:12:41.602Z,14.00
2018-06-04T06:13:41.416Z,13.60
2018-06-04T06:14:41.413Z,14.30
2018-06-04T06:15:41.683Z,14.10
2018-06-04T06:16:41.670Z,14.30
2018-06-04T06:17:41.937Z,15.20
2018-06-04T06:18:42.252Z,14.30
2018-06-04T06:19:42.319Z,14.50
2018-06-04T06:20:44.382Z,15.10
2018-06-04T06:21:42.304Z,14.80
2018-06-04T06:22:42.703Z,14.30
2018-06-04T06:23:44.188Z,15.40
2018-06-04T06:24:42.573Z,15.50
2018-06-04T06:25:43.303Z,15.30
2018-06-04T06:26:44.192Z,15.20
2018-06-04T06:27:42.819Z,15.50
2018-06-04T06:28:43.099Z,15.60
2018-06-04T06:29:43.697Z,16.40
2018-06-04T06:30:43.291Z,17.00
2018-06-04T06:31:43.295Z,17.00
2018-06-04T06:32:43.735Z,17.20
2018-06-04T06:33:43.465Z,16.50
2018-06-04T06:34:44.117Z,18.80
2018-06-04T06:35:45.174Z,16.90
2018-06-04T06:36:43.985Z,16.70
2018-06-04T06:37:45.556Z,16.80
2018-06-04T06:38:44.249Z,16.70
2018-06-04T06:39:44.238Z,16.40
2018-06-04T06:40:44.796Z,16.60
2018-06-04T06:41:44.380Z,17.10
2018-06-04T06:42:44.397Z,18.10
2018-06-04T06:43:44.505Z,18.20
2018-06-04T06:44:44.782Z,17.50
2018-06-04T06:45:44.826Z,16.70
2018-06-04T06:46:44.808Z,20.00
2018-06-04T06:47:45.102Z,18.90
2018-06-04T06:48:45.170Z,19.20
2018-06-04T06:49:45.587Z,17.80
2018-06-04T06:50:45.426Z,18.90
2018-06-04T06:51:45.524Z,18.90
2018-06-04T06:52:45.853Z,18.90
2018-06-04T06:53:45.976Z,19.40
2018-06-04T06:54:46.170Z,19.60
2018-06-04T06:55:45.946Z,20.90
2018-06-04T06:56:46.298Z,20.40
2018-06-04T06:57:46.068Z,19.00
2018-06-04T06:58:46.140Z,21.00
2018-06-04T06:59:46.249Z,19.10
2018-06-04T07:00:46.359Z,19.20
2018-06-04T07:01:46.459Z,19.50
2018-06-04T07:02:46.630Z,22.30
2018-06-04T07:03:46.642Z,19.20
2018-06-04T07:04:46.759Z,19.40
2018-06-04T07:05:46.945Z,20.80
2018-06-04T07:06:47.373Z,21.50
2018-06-04T07:07:47.114Z,19.20
2018-06-04T07:08:47.222Z,20.40
2018-06-04T07:09:47.325Z,19.10
2018-06-04T07:10:47.428Z,19.60
2018-06-04T07:11:47.568Z,18.10
2018-06-04T07:12:47.679Z,19.20
2018-06-04T07:13:47.844Z,19.90
2018-06-04T07:14:47.992Z,19.50
2018-06-04T07:15:48.210Z,19.60
2018-06-04T07:16:48.185Z,19.50
2018-06-04T07:17:48.562Z,19.90
2018-06-04T07:18:48.487Z,19.20
2018-06-04T07:19:48.478Z,20.30
2018-06-04T07:20:48.630Z,20.00
2018-06-04T07:21:48.974Z,21.60
2018-06-04T07:22:48.922Z,19.10
2018-06-04T07:23:49.143Z,19.30
2018-06-04T07:24:49.691Z,19.50
2018-06-04T07:25:49.297Z,19.20
2018-06-04T07:26:49.382Z,21.10
2018-06-04T07:27:49.593Z,19.50
2018-06-04T07:28:49.530Z,18.10
2018-06-04T07:29:49.574Z,18.70
2018-06-04T07:30:49.832Z,19.50
2018-06-04T07:31:49.842Z,19.30
2018-06-04T07:32:49.970Z,20.40
2018-06-04T07:33:50.437Z,19.20
2018-06-04T07:34:50.307Z,17.70
2018-06-04T07:35:50.433Z,17.30
2018-06-04T07:36:50.623Z,17.40
2018-06-04T07:37:50.468Z,19.80
2018-06-04T07:38:50.694Z,17.50
2018-06-04T07:39:50.860Z,18.40
2018-06-04T07:40:50.873Z,18.70
2018-06-04T07:41:51.096Z,18.90
2018-06-04T07:42:51.192Z,18.50
2018-06-04T07:43:51.159Z,20.20
2018-06-04T07:44:51.375Z,18.70
2018-06-04T07:45:51.425Z,18.70
2018-06-04T07:46:51.422Z,17.30
2018-06-04T07:47:51.542Z,18.70
2018-06-04T07:48:51.656Z,17.90
2018-06-04T07:49:51.798Z,19.70
2018-06-04T07:50:51.896Z,18.80
2018-06-04T07:51:52.040Z,18.60
2018-06-04T07:52:52.244Z,18.60
2018-06-04T07:53:52.211Z,17.50
2018-06-04T07:54:52.326Z,19.20
2018-06-04T07:55:52.486Z,17.90
2018-06-04T07:56:53.051Z,18.80
2018-06-04T07:57:52.724Z,18.80
2018-06-04T07:58:53.045Z,17.00
2018-06-04T07:59:52.944Z,16.20
2018-06-04T08:00:53.073Z,20.10
2018-06-04T08:01:53.277Z,16.00
2018-06-04T08:02:53.573Z,18.40
2018-06-04T08:03:53.398Z,16.50
2018-06-04T08:04:53.563Z,17.70
2018-06-04T08:05:53.715Z,16.80
2018-06-04T08:06:53.816Z,17.30
2018-06-04T08:07:53.929Z,16.90
2018-06-04T08:08:54.032Z,15.90
2018-06-04T08:09:54.176Z,16.20
2018-06-04T08:10:54.252Z,18.10
2018-06-04T08:11:54.354Z,17.30
2018-06-04T08:12:54.464Z,17.20
2018-06-04T08:13:54.597Z,16.50
2018-06-04T08:14:54.810Z,16.70
2018-06-04T08:15:54.744Z,15.40
2018-06-04T08:16:54.858Z,16.00
2018-06-04T08:17:55.031Z,17.00
2018-06-04T08:18:55.338Z,15.30
2018-06-04T08:19:55.237Z,15.00
2018-06-04T08:20:55.347Z,15.80
2018-06-04T08:21:55.451Z,15.70
2018-06-04T08:22:55.837Z,15.80
2018-06-04T08:23:55.863Z,16.60
2018-06-04T08:24:55.818Z,14.10
2018-06-04T08:25:55.946Z,14.60
2018-06-04T08:26:56.056Z,15.80
2018-06-04T08:27:56.223Z,14.50
2018-06-04T08:28:56.216Z,15.70
2018-06-04T08:29:56.342Z,15.20
2018-06-04T08:30:56.449Z,15.10
2018-06-04T08:31:56.551Z,13.90
2018-06-04T08:32:56.660Z,12.00
2018-06-04T08:33:56.774Z,11.90
2018-06-04T08:34:56.890Z,14.00
2018-06-04T08:35:57.014Z,14.70
2018-06-04T08:36:57.126Z,14.10
2018-06-04T08:37:57.235Z,13.00
2018-06-04T08:38:57.337Z,12.20
2018-06-04T08:39:57.445Z,12.80
2018-06-04T08:40:57.566Z,13.10
2018-06-04T08:41:57.674Z,11.90
2018-06-04T08:42:57.783Z,11.60
2018-06-04T08:43:57.895Z,13.80
2018-06-04T08:44:58.003Z,13.20
2018-06-04T08:45:58.158Z,12.80
2018-06-04T08:46:58.216Z,12.70
2018-06-04T08:47:58.325Z,13.20
2018-06-04T08:48:58.431Z,11.70
2018-06-04T08:49:58.538Z,11.20
2018-06-04T08:50:58.675Z,11.50
2018-06-04T08:51:58.759Z,11.80
2018-06-04T08:52:58.864Z,10.50
2018-06-04T08:53:58.971Z,10.20
2018-06-04T08:54:59.078Z,11.10
2018-06-04T08:55:59.184Z,10.60
2018-06-04T08:56:59.302Z,11.40
2018-06-04T08:57:59.407Z,12.70
2018-06-04T08:58:59.524Z,11.90
2018-06-04T08:59:59.627Z,12.40
2018-06-04T09:00:59.746Z,11.70
2018-06-04T09:01:59.854Z,11.50
2018-06-04T09:02:59.966Z,10.30
2018-06-04T09:04:00.075Z,10.30
2018-06-04T09:05:00.181Z,10.70
2018-06-04T09:06:00.302Z,10.80
2018-06-04T09:07:00.408Z,10.20
2018-06-04T09:08:00.511Z,10.30
2018-06-04T09:09:00.617Z,10.50
2018-06-04T09:10:00.725Z,10.70
2018-06-04T09:11:00.832Z,10.20
2018-06-04T09:12:00.939Z,9.60
2018-06-04T09:13:01.046Z,9.90
2018-06-04T09:14:01.157Z,9.00
2018-06-04T09:15:01.264Z,10.90
2018-06-04T09:16:01.370Z,8.90
2018-06-04T09:17:01.476Z,9.00
2018-06-04T09:18:01.589Z,9.90
2018-06-04T09:19:01.691Z,10.40
2018-06-04T09:20:01.803Z,10.10
2018-06-04T09:21:01.905Z,9.40
2018-06-04T09:22:02.031Z,9.80
2018-06-04T09:23:02.123Z,9.70
2018-06-04T09:24:02.230Z,9.30
2018-06-04T09:25:02.339Z,9.70
2018-06-04T09:26:02.447Z,8.60
2018-06-04T09:27:02.555Z,8.50
2018-06-04T09:28:02.664Z,9.80
2018-06-04T09:29:02.773Z,9.90
2018-06-04T09:30:02.875Z,9.40
2018-06-04T09:31:02.977Z,8.20
2018-06-04T09:32:03.125Z,8.00
2018-06-04T09:33:03.200Z,8.50
2018-06-04T09:34:03.304Z,10.30
2018-06-04T09:35:03.412Z,9.50
2018-06-04T09:36:03.522Z,9.20
2018-06-04T09:37:03.642Z,8.50
2018-06-04T09:38:03.751Z,8.80
2018-06-04T09:39:03.859Z,8.90
2018-06-04T09:40:04.023Z,9.50
2018-06-04T09:41:04.074Z,9.00
2018-06-04T09:42:04.183Z,9.00
2018-06-04T09:43:04.291Z,7.80
2018-06-04T09:44:04.397Z,8.10
2018-06-04T09:45:04.496Z,7.20
2018-06-04T09:46:04.613Z,6.60
2018-06-04T09:47:04.720Z,6.50
2018-06-04T09:48:04.829Z,6.90
2018-06-04T09:49:04.938Z,7.40
2018-06-04T09:50:05.047Z,7.00
2018-06-04T09:51:05.164Z,8.30
2018-06-04T09:52:05.276Z,7.80
2018-06-04T09:53:05.384Z,8.00
2018-06-04T09:54:05.541Z,7.30
2018-06-04T09:55:05.603Z,7.50
2018-06-04T09:56:05.709Z,7.30
2018-06-04T09:57:05.818Z,6.70
2018-06-04T09:58:05.926Z,7.90
2018-06-04T09:59:06.036Z,7.00
2018-06-04T10:00:06.148Z,7.40
2018-06-04T10:01:06.255Z,6.00
2018-06-04T10:02:06.365Z,6.20
2018-06-04T10:03:06.477Z,7.00
2018-06-04T10:04:06.584Z,7.30
2018-06-04T10:05:06.693Z,7.30
2018-06-04T10:06:06.807Z,8.20
2018-06-04T10:07:06.911Z,7.80
2018-06-04T10:08:07.018Z,7.20
2018-06-04T10:09:07.198Z,7.40
2018-06-04T10:10:07.222Z,7.10
2018-06-04T10:11:07.331Z,7.10
2018-06-04T10:12:07.440Z,6.80
2018-06-04T10:13:07.550Z,6.60
2018-06-04T10:14:07.658Z,7.00
2018-06-04T10:15:07.752Z,6.90
2018-06-04T10:16:07.877Z,7.20
2018-06-04T10:17:07.984Z,7.10
2018-06-04T10:18:08.094Z,7.60
2018-06-04T10:19:08.204Z,7.10
2018-06-04T10:20:08.312Z,6.80
2018-06-04T10:21:08.420Z,8.70
2018-06-04T10:22:08.531Z,6.10
2018-06-04T10:23:08.637Z,6.90
2018-06-04T10:24:08.745Z,7.30
2018-06-04T10:25:08.853Z,7.10
2018-06-04T10:26:08.967Z,6.50
2018-06-04T10:27:09.076Z,6.00
2018-06-04T10:28:09.187Z,6.50
2018-06-04T10:29:09.296Z,6.70
2018-06-04T10:30:09.407Z,7.20
2018-06-04T10:31:09.511Z,6.10
2018-06-04T10:32:09.621Z,7.40
2018-06-04T10:33:09.730Z,5.90
2018-06-04T10:34:09.839Z,5.60
2018-06-04T10:35:09.948Z,5.30
2018-06-04T10:36:11.112Z,6.20
2018-06-04T10:37:10.164Z,5.70
2018-06-04T10:38:10.291Z,5.30
2018-06-04T10:39:10.647Z,5.50
2018-06-04T10:40:10.986Z,6.20
2018-06-04T10:41:10.607Z,6.10
2018-06-04T10:42:10.801Z,5.20
2018-06-04T10:43:10.860Z,5.30
2018-06-04T10:44:11.094Z,5.60
2018-06-04T10:45:13.151Z,5.20
2018-06-04T10:46:11.285Z,5.60
2018-06-04T10:47:11.397Z,5.40
2018-06-04T10:48:13.463Z,5.80
2018-06-04T10:49:11.868Z,6.10
2018-06-04T10:50:11.688Z,5.50
2018-06-04T10:51:12.286Z,5.80
2018-06-04T10:52:12.032Z,5.70
2018-06-04T10:53:12.298Z,5.30
2018-06-04T10:54:12.280Z,6.00
2018-06-04T10:55:12.353Z,5.60
2018-06-04T10:56:13.136Z,5.90
2018-06-04T10:57:12.561Z,5.70
2018-06-04T10:58:12.749Z,6.20
2018-06-04T10:59:12.774Z,5.90
2018-06-04T11:00:12.978Z,5.80
2018-06-04T11:01:13.193Z,5.60
2018-06-04T11:02:13.399Z,5.70
2018-06-04T11:03:13.159Z,6.40
2018-06-04T11:04:13.320Z,5.90
2018-06-04T11:05:15.368Z,6.20
2018-06-04T11:06:13.569Z,5.60
2018-06-04T11:07:13.693Z,6.00
2018-06-04T11:08:13.853Z,5.80
2018-06-04T11:09:13.942Z,5.50
2018-06-04T11:10:14.197Z,5.90
2018-06-04T11:11:14.134Z,5.40
2018-06-04T11:12:14.212Z,5.60
2018-06-04T11:13:14.319Z,5.20
2018-06-04T11:14:14.432Z,5.20
2018-06-04T11:15:14.537Z,5.40
2018-06-04T11:16:14.633Z,5.70
2018-06-04T11:17:14.731Z,5.30
2018-06-04T11:18:14.834Z,5.60
2018-06-04T11:19:14.949Z,5.00
2018-06-04T11:20:15.050Z,5.20
2018-06-04T11:21:15.171Z,5.90
2018-06-04T11:22:15.267Z,5.80
2018-06-04T11:23:15.373Z,5.50
2018-06-04T11:24:15.484Z,6.20
2018-06-04T11:25:15.578Z,5.30
2018-06-04T11:26:15.682Z,5.60
2018-06-04T11:27:15.806Z,5.50
2018-06-04T11:28:15.936Z,6.10
2018-06-04T11:29:16.072Z,5.10
2018-06-04T11:30:16.170Z,5.60
2018-06-04T11:31:16.281Z,5.30
2018-06-04T11:32:16.465Z,5.40
2018-06-04T11:33:16.444Z,7.10
2018-06-04T11:34:16.553Z,5.10
2018-06-04T11:35:16.660Z,4.80
2018-06-04T11:36:16.801Z,5.00
2018-06-04T11:37:16.951Z,5.70
2018-06-04T11:38:17.064Z,5.20
2018-06-04T11:39:17.182Z,5.40
2018-06-04T11:40:17.278Z,5.70
2018-06-04T11:41:17.428Z,5.10
2018-06-04T11:42:17.536Z,5.10
2018-06-04T11:43:17.630Z,5.00
2018-06-04T11:44:17.746Z,4.90
2018-06-04T11:45:17.846Z,4.90
2018-06-04T11:46:17.942Z,5.00
2018-06-04T11:47:18.040Z,5.00
2018-06-04T11:48:18.191Z,5.30
2018-06-04T11:49:18.296Z,5.40
2018-06-04T11:50:18.409Z,5.60
2018-06-04T11:51:18.514Z,6.10
2018-06-04T11:52:18.640Z,5.30
2018-06-04T11:53:18.749Z,5.70
2018-06-04T11:54:18.863Z,5.30
2018-06-04T11:55:18.956Z,5.20
2018-06-04T11:56:19.028Z,6.40
2018-06-04T11:57:19.111Z,5.20
2018-06-04T11:58:19.266Z,5.90
2018-06-04T11:59:19.398Z,5.10
2018-06-04T12:00:19.469Z,5.80
2018-06-04T12:01:19.577Z,5.40
2018-06-04T12:02:19.688Z,5.00
2018-06-04T12:03:19.796Z,4.90
2018-06-04T12:04:19.910Z,4.60
2018-06-04T12:05:20.020Z,5.00
2018-06-04T12:06:20.132Z,5.00
2018-06-04T12:07:20.264Z,5.00
2018-06-04T12:08:20.349Z,5.50
2018-06-04T12:09:20.457Z,5.00
2018-06-04T12:10:20.567Z,5.40
2018-06-04T12:11:20.678Z,4.70
2018-06-04T12:12:20.794Z,5.10
2018-06-04T12:13:20.904Z,4.80
2018-06-04T12:14:21.016Z,4.60
2018-06-04T12:15:21.124Z,5.70
2018-06-04T12:16:21.234Z,5.10
2018-06-04T12:17:21.344Z,5.40
2018-06-04T12:18:21.458Z,5.00
2018-06-04T12:19:21.568Z,5.60
2018-06-04T12:20:21.678Z,5.00
2018-06-04T12:21:21.805Z,5.10
2018-06-04T12:22:21.888Z,5.40
2018-06-04T12:23:21.996Z,4.90
2018-06-04T12:24:22.108Z,5.40
2018-06-04T12:25:22.218Z,7.70
2018-06-04T12:26:22.327Z,5.60
2018-06-04T12:27:22.437Z,6.50
2018-06-04T12:28:22.548Z,5.40
2018-06-04T12:29:22.660Z,4.90
2018-06-04T12:30:22.771Z,5.60
2018-06-04T12:31:22.880Z,6.50
2018-06-04T12:32:22.996Z,6.40
2018-06-04T12:33:23.105Z,7.10
2018-06-04T12:34:23.210Z,6.80
2018-06-04T12:35:23.333Z,6.10
2018-06-04T12:36:23.440Z,6.30
2018-06-04T12:37:23.549Z,6.30
2018-06-04T12:38:23.661Z,7.60
2018-06-04T12:39:23.767Z,6.50
2018-06-04T12:40:23.880Z,6.90
2018-06-04T12:41:23.992Z,7.10
2018-06-04T12:42:24.104Z,7.10
2018-06-04T12:43:24.214Z,6.40
2018-06-04T12:44:24.324Z,8.10
2018-06-04T12:45:24.440Z,6.70
2018-06-04T12:46:24.544Z,6.80
2018-06-04T12:47:24.653Z,7.10
2018-06-04T12:48:24.762Z,6.70
2018-06-04T12:49:24.876Z,7.10
2018-06-04T12:50:24.982Z,6.60
2018-06-04T12:51:25.089Z,7.00
2018-06-04T12:52:25.205Z,6.70
2018-06-04T12:53:25.316Z,6.50
2018-06-04T12:54:25.434Z,6.90
2018-06-04T12:55:25.550Z,6.70
2018-06-04T12:56:25.659Z,7.00
2018-06-04T12:57:25.765Z,7.00
2018-06-04T12:58:25.868Z,6.60
2018-06-04T12:59:25.975Z,6.20
2018-06-04T13:00:26.088Z,6.40